• Join FlightAware (Why Join?)
  • Login
  • US Flag 
08:41AM EST


 

Airport Tracker/Info


-or-


 

Live Flight TrackerFlight Track Log ✈ SWA2702 ✈ 25-Apr-2013 ✈ KSNA - KSFO

Flight Track Log - Related Links

Times and Time Zones

All times are in EDT time to prevent confusion due to time zone crossing. See the SWA2702 flight status page for this flight to view local times or setup timezone preferences in your user account.

Time Position Orientation Groundspeed Altitude Reporting Facility
EDT Latitude Longitude Course Direction KTS MPH feet Rate Location/Type
11:17AM 33.6667 -117.8833 180° South 153 176 1,100  Level Southern California TRACON
11:18AM 33.6167 -117.8833 180° South 156 180 2,800 1,320 Climbing Southern California TRACON
11:18AM 33.6167 -117.8936 270° West 152 175 2,900 2,160 Climbing Los Angeles Center
11:19AM 33.5589 -117.9014 186° South 169 194 5,800 2,820 Climbing Los Angeles Center
11:20AM 33.4922 -117.9514 212° Southwest 266 306 8,800 3,360 Climbing Los Angeles Center
11:21AM 33.4383 -118.0272 230° Southwest 312 359 12,800 3,120 Climbing Los Angeles Center
11:22AM 33.4206 -118.1428 260° West 347 399 15,300 2,940 Climbing Los Angeles Center
11:23AM 33.4339 -118.2817 277° West 367 422 19,500 3,360 Climbing Los Angeles Center
11:24AM 33.5139 -118.3911 311° West 363 418 23,000 2,460 Climbing Los Angeles Center
11:25AM 33.5833 -118.4867 311° West 371 427 24,700 1,800 Climbing Los Angeles Center
11:26AM 33.6564 -118.5861 311° West 387 445 26,800 1,980 Climbing Los Angeles Center
11:27AM 33.7331 -118.6908 311° West 409 471 28,900 2,040 Climbing Los Angeles Center
11:28AM 33.8097 -118.7956 311° West 414 476 31,100 2,340 Climbing Los Angeles Center
11:29AM 33.8844 -118.8994 311° West 409 471 33,800 2,100 Climbing Los Angeles Center
11:31AM 33.9572 -119.0008 311° West 402 463 35,500 1,500 Climbing Los Angeles Center
11:32AM 34.0478 -119.1261 311° West 411 473 37,000 1,200 Climbing Los Angeles Center
11:33AM 34.1233 -119.2311 311° West 414 476 38,000 480 Climbing Los Angeles Center
11:34AM 34.1989 -119.3375 311° West 416 479 38,000  Level Los Angeles Center
11:35AM 34.2756 -119.4431 311° West 417 480 38,000  Level Los Angeles Center
11:36AM 34.3489 -119.5489 310° West 412 474 38,000  Level Los Angeles Center
11:37AM 34.4225 -119.6533 311° West 409 471 38,000  Level Los Angeles Center
11:38AM 34.5117 -119.7761 311° West 405 466 38,000  Level Los Angeles Center
11:39AM 34.5967 -119.8689 318° Northwest 410 472 38,000  Level Los Angeles Center
11:40AM 34.6767 -119.9522 319° Northwest 408 470 38,000  Level Los Angeles Center
11:41AM 34.7772 -120.0636 318° Northwest 407 468 38,000  Level Los Angeles Center
11:42AM 34.8636 -120.1581 318° Northwest 416 479 38,000  Level Los Angeles Center
11:43AM 34.9481 -120.2514 318° Northwest 416 479 38,000  Level Los Angeles Center
11:44AM 35.0317 -120.3444 318° Northwest 414 476 38,000  Level Los Angeles Center
11:45AM 35.1164 -120.4378 318° Northwest 414 476 38,000  Level Los Angeles Center
11:46AM 35.2011 -120.5328 318° Northwest 416 479 38,000  Level Los Angeles Center
11:47AM 35.3042 -120.6472 318° Northwest 419 482 38,000  Level Los Angeles Center
11:48AM 35.3803 -120.7336 317° Northwest 420 483 38,000  Level Oakland Center
11:49AM 35.4728 -120.8200 323° Northwest 416 479 38,000  Level Oakland Center
11:50AM 35.5689 -120.9053 324° Northwest 423 487 38,000  Level Oakland Center
11:51AM 35.6633 -120.9886 324° Northwest 417 480 38,000  Level Oakland Center
11:52AM 35.7586 -121.0736 324° Northwest 420 483 38,000 -540 Level Oakland Center
11:53AM 35.8533 -121.1589 324° Northwest 420 483 37,000 -1,440 Descending Oakland Center
11:54AM 35.9467 -121.2406 325° Northwest 412 474 35,100 -2,100 Descending Oakland Center
11:55AM 36.0544 -121.3367 324° Northwest 396 456 32,700 -2,160 Descending Oakland Center
11:56AM 36.1389 -121.4178 322° Northwest 385 443 30,700 -1,740 Descending Oakland Center
11:57AM 36.1603 -121.5461 282° West 386 444 29,200 -1,320 Descending Oakland Center
11:58AM 36.1619 -121.6733 271° West 374 430 28,000 -1,140 Descending Oakland Center
11:59AM 36.1661 -121.7997 272° West 369 425 26,900 -1,200 Descending Oakland Center
12:00PM 36.1689 -121.9450 271° West 370 426 25,600 -1,080 Descending Oakland Center
12:01PM 36.2342 -122.0211 317° Northwest 350 403 24,700 -960 Descending Oakland Center
12:02PM 36.3292 -122.0122 North 339 390 23,700 -1,020 Descending Oakland Center
12:03PM 36.4217 -122.0031 North 336 387 22,700 -1,140 Descending Oakland Center
12:04PM 36.5119 -121.9942 North 328 377 21,400 -1,440 Descending Oakland Center
12:05PM 36.6003 -121.9819 North 320 368 19,800 -1,800 Descending Oakland Center
12:06PM 36.6856 -121.9725 North 310 357 17,800 -1,440 Descending Oakland Center
12:07PM 36.7722 -121.9692 North 312 359 16,900 -600 Descending Oakland Center
12:08PM 36.8500 -121.9833 352° North 261 300 16,700 -660 Descending Northern Cal TRACON
12:09PM 36.9167 -122.0000 349° North 241 277 15,700 -900 Descending Northern Cal TRACON
12:10PM 36.9833 -122.0333 338° Northwest 237 273 15,000 -660 Descending Northern Cal TRACON
12:11PM 36.9897 -122.0278 35° Northeast 238 274 14,900 -840 Descending Oakland Center
12:12PM 37.0344 -122.0775 318° Northwest 251 289 14,000 -900 Descending Oakland Center
12:13PM 36.9875 -122.1219 217° Southwest 250 288 13,100 -540 Descending Oakland Center
12:14PM 36.9211 -122.1017 166° South 250 288 13,000 -60 Descending Oakland Center
12:14PM 36.8667 -122.0833 165° South 245 282 13,000  Level Northern Cal TRACON
12:15PM 36.8000 -122.0500 158° South 248 285 13,000  Level Northern Cal TRACON
12:16PM 36.8333 -121.9833 58° Northeast 253 291 13,000 -300 Level Northern Cal TRACON
12:17PM 36.9000 -122.0000 349° North 237 273 12,400 -720 Descending Northern Cal TRACON
12:18PM 36.9158 -122.0078 339° North 238 274 12,100 -1,020 Descending Oakland Center
12:19PM 36.9792 -122.0236 349° North 233 268 11,100 -1,080 Descending Oakland Center
12:20PM 37.0292 -122.0608 329° Northwest 228 262 10,000 -540 Descending Oakland Center
12:21PM 36.9950 -122.1114 230° Southwest 233 268 10,000  Level Oakland Center
12:22PM 36.9314 -122.0906 165° South 236 272 10,000  Level Oakland Center
12:23PM 36.8675 -122.0733 168° South 235 270 10,000  Level Oakland Center
12:23PM 36.8167 -122.0667 174° South 235 270 10,000  Level Northern Cal TRACON
12:24PM 36.8167 -122.0000 90° East 255 293 10,000  Level Northern Cal TRACON
12:25PM 36.8833 -122.0000 360° North 240 276 10,000  Level Northern Cal TRACON
12:26PM 36.9181 -122.0111 346° North 239 275 10,000  Level Oakland Center
12:27PM 36.9842 -122.0292 348° North 241 277 10,000  Level Oakland Center
12:28PM 37.0492 -122.0464 348° North 239 275 10,000  Level Oakland Center
12:29PM 37.1164 -122.0600 351° North 242 278 10,000 -60 Level Oakland Center
12:30PM 37.1814 -122.0789 347° North 240 276 9,900 -480 Descending Oakland Center
12:31PM 37.2125 -122.1389 303° West 221 254 9,100 -960 Descending Oakland Center
12:32PM 37.2294 -122.2106 287° West 214 246 8,000 -1,140 Descending Oakland Center
12:33PM 37.2956 -122.2392 341° North 211 243 6,800 -1,140 Descending Oakland Center
12:34PM 37.3494 -122.2314 North 206 237 5,700 -960 Descending Oakland Center
12:35PM 37.3753 -122.1672 63° Northeast 205 236 4,900 -840 Descending Oakland Center
12:36PM 37.4150 -122.1292 37° Northeast 190 219 4,000 -660 Descending Oakland Center
12:37PM 37.4333 -122.1167 28° Northeast 182 209 4,000 -780 Level Northern Cal TRACON
12:38PM 37.4833 -122.1000 15° North 196 226 3,000 -540 Descending Northern Cal TRACON
12:39PM 37.5167 -122.1500 310° West 189 217 3,000 -60 Level Northern Cal TRACON
12:39PM 37.5333 -122.1758 309° West 188 216 2,900 -600 Descending Oakland Center
12:40PM 37.5597 -122.2386 298° West 174 200 2,000 -900 Descending Oakland Center
12:41PM 37.5811 -122.2894 298° West 169 194 1,100 -840 Descending Oakland Center
12:42PM 37.5997 -122.3336 298° West 158 182 400 -720 Descending Oakland Center